Latest Weather Observations for Tindal

IDD60801

Issued at 5:35 pm CST Thursday 24 April 2014 (issued every 30 minutes, with the page automatically refreshed every 10 minutes)

About weather observations | Map of weather stations | Latest weather observations for NT | Other Formats
Station Details ID: 014932 Name: TINDAL RAAF Lat: -14.52 Lon: 132.38 Height: 133.6 m
Data from the previous 72 hours. | See also: Recent months at Tindal
Date/Time
CST
Temp
°C
App
Temp
°C
Dew
Point
Rel
Hum
%
Delta-T
°C
Wind Press
QNH
hPa
Press
MSL
hPa
Rain
since 9 am
mm
Dir
 
Spd
km/h
Gust
km/h
Spd
kts
Gust
kts
24/05:30pm 32.4 32.1 18.2 42 9.2 SSE 17 20 9 11 1006.6 - 0.0
24/05:00pm 33.1 32.7 18.1 41 9.8 ESE 17 20 9 11 1006.5 - 0.0
24/04:30pm 33.6 32.7 17.7 38 10.3 SE 19 24 10 13 1006.3 - 0.0
24/04:00pm 33.4 32.4 18.0 40 10.0 SE 20 26 11 14 1006.4 - 0.0
24/03:30pm 33.4 32.7 18.3 40 9.8 SE 19 30 10 16 1006.4 - 0.0
24/03:00pm 33.7 33.9 18.6 40 9.9 ESE 15 20 8 11 1006.7 1005.9 0.0
24/02:30pm 33.7 32.8 18.2 39 10.1 ESE 20 28 11 15 1006.8 - 0.0
24/02:00pm 33.9 33.5 18.8 41 9.9 ESE 19 26 10 14 1007.0 - 0.0
24/01:30pm 33.1 32.1 18.8 42 9.4 SSE 22 30 12 16 1007.6 - 0.0
24/01:00pm 32.7 30.2 18.1 42 9.5 SSE 28 33 15 18 1008.3 - 0.0
24/12:30pm 32.2 30.5 18.0 42 9.2 SE 24 35 13 19 1008.9 - 0.0
24/12:00pm 31.7 31.3 19.3 47 8.2 ESE 20 26 11 14 1009.4 1008.5 0.0
24/11:30am 30.9 30.8 19.6 51 7.4 SSE 19 28 10 15 1010.2 - 0.0
24/11:00am 29.9 30.6 20.5 57 6.3 ESE 17 26 9 14 1010.8 - 0.0
24/10:30am 29.1 30.7 20.8 61 5.5 ESE 13 24 7 13 1011.1 - 0.0
24/10:00am 28.8 30.7 21.3 64 5.0 SE 13 17 7 9 1011.0 - 0.0
24/09:30am 27.5 29.3 21.1 68 4.3 ESE 13 19 7 10 1010.6 - 0.0
24/09:00am 26.5 28.5 21.5 74 3.3 SE 13 19 7 10 1010.2 1009.3 0.0
24/08:30am 24.7 27.4 21.4 82 2.2 SE 9 15 5 8 1010.1 - 0.0
24/08:00am 23.1 26.2 21.4 90 1.1 SE 7 9 4 5 1009.9 - 0.0
24/07:30am 22.2 24.8 21.2 94 0.7 SSE 9 9 5 5 1009.7 - 0.0
24/07:00am 21.6 23.8 20.4 93 0.8 SSE 9 9 5 5 1009.4 - 0.0
24/06:30am 22.2 25.0 20.8 92 0.9 SE 7 9 4 5 1009.3 - 0.0
24/06:00am 22.5 25.0 21.1 92 0.9 ESE 9 11 5 6 1009.0 1008.1 0.0
24/05:30am 22.0 24.7 20.6 92 0.9 ESE 7 9 4 5 1008.6 - 0.0
24/05:00am 21.8 24.0 20.3 91 1.0 SSE 9 11 5 6 1008.2 - 0.0
24/04:30am 21.9 24.4 20.2 90 1.1 SSE 7 9 4 5 1008.1 - 0.0
24/04:00am 22.1 24.5 20.0 88 1.4 SSE 7 7 4 4 1008.1 - 0.0
24/03:30am 22.6 25.0 20.1 86 1.6 SSE 7 9 4 5 1008.0 - 0.0
24/03:00am 22.8 24.5 20.1 85 1.8 SE 11 11 6 6 1007.9 1007.1 0.0
24/02:30am 23.0 25.4 20.0 83 1.9 SE 7 7 4 4 1008.1 - 0.0
24/02:00am 23.2 24.7 19.8 81 2.2 SSE 11 11 6 6 1008.5 - 0.0
24/01:30am 23.4 25.3 19.8 80 2.3 SSE 9 11 5 6 1008.9 - 0.0
24/01:00am 23.8 25.8 19.9 79 2.5 SSE 9 9 5 5 1009.4 - 0.0
24/12:30am 24.3 26.7 20.0 77 2.8 SSE 7 9 4 5 1009.7 - 0.0
24/12:00am 24.5 26.4 19.8 75 3.1 SE 9 9 5 5 1009.7 1008.8 0.0
 
Date/Time
CST
Temp
°C
App
Temp
°C
Dew
Point
Rel
Hum
%
Delta-T
°C
Wind Press
QNH
hPa
Press
MSL
hPa
Rain
since 9 am
mm
Dir
 
Spd
km/h
Gust
km/h
Spd
kts
Gust
kts
23/11:30pm 24.7 27.1 20.0 75 3.1 SE 7 7 4 4 1010.1 - 0.0
23/11:00pm 25.6 27.9 19.9 70 3.7 SE 7 9 4 5 1010.2 - 0.0
23/10:30pm 26.8 29.0 19.7 65 4.6 E 7 9 4 5 1010.2 - 0.0
23/10:00pm 26.7 28.5 19.6 65 4.6 E 9 11 5 6 1010.2 - 0.0
23/09:30pm 26.4 28.8 20.0 68 4.2 SE 7 9 4 5 1010.0 - 0.0
23/09:00pm 27.2 29.5 19.8 64 4.8 ESE 7 9 4 5 1009.7 1008.8 0.0
23/08:30pm 27.6 29.5 19.7 62 5.2 SE 9 9 5 5 1009.2 - 0.0
23/08:00pm 28.0 29.9 19.8 61 5.4 SSE 9 11 5 6 1008.7 - 0.0
23/07:30pm 28.9 30.7 19.5 57 6.1 SE 9 11 5 6 1008.3 - 0.0
23/07:00pm 29.9 31.7 19.6 54 6.8 SE 9 13 5 7 1007.9 - 0.0
23/06:30pm 30.5 31.9 19.5 51 7.2 SE 11 15 6 8 1007.5 - 0.0
23/06:00pm 32.0 31.6 18.9 45 8.6 SE 19 28 10 15 1007.1 1006.3 0.0
23/05:30pm 32.8 32.6 18.6 43 9.3 SE 17 24 9 13 1006.7 - 0.0
23/05:00pm 33.9 33.3 18.8 41 9.9 SE 20 32 11 17 1006.3 - 0.0
23/04:30pm 33.9 33.3 18.8 41 9.9 ESE 20 26 11 14 1006.4 - 0.0
23/04:00pm 34.4 32.5 17.6 37 10.9 ESE 24 32 13 17 1006.3 - 0.0
23/03:30pm 35.7 34.9 17.9 35 11.6 ESE 19 32 10 17 1006.4 - 0.0
23/03:00pm 34.6 32.4 16.9 35 11.4 ESE 24 33 13 18 1006.8 1006.0 0.0
23/02:30pm 35.4 33.9 17.6 35 11.6 SE 22 33 12 18 1007.3 - 0.0
23/02:00pm 35.8 34.0 17.9 34 11.7 ESE 24 33 13 18 1007.7 - 0.0
23/01:30pm 34.6 31.8 16.4 33 11.6 SE 26 35 14 19 1008.3 - 0.0
23/01:00pm 34.7 32.7 16.5 33 11.6 SSE 22 30 12 16 1008.8 - 0.0
23/12:30pm 34.5 32.8 18.1 37 10.7 E 24 33 13 18 1009.3 - 0.0
23/12:00pm 32.8 32.1 18.6 43 9.3 SE 20 28 11 15 1009.8 1008.9 0.0
23/11:30am 31.9 32.6 20.5 51 7.6 SE 17 20 9 11 1010.4 - 0.0
23/11:00am 30.6 31.8 21.4 58 6.2 ESE 17 26 9 14 1011.0 - 0.0
23/10:30am 30.2 31.6 21.8 60 5.7 SE 17 24 9 13 1011.5 - 0.0
23/10:00am 29.4 31.5 22.4 66 4.8 E 15 20 8 11 1011.4 - 0.0
23/09:30am 28.2 29.8 22.2 70 4.1 E 17 24 9 13 1011.6 - 0.0
23/09:00am 26.9 27.4 21.9 74 3.4 E 22 32 12 17 1011.4 1010.5 0.0
23/08:30am 26.0 27.3 21.7 77 2.9 E 17 24 9 13 1011.2 - 0.0
23/08:00am 24.0 25.6 20.7 82 2.2 SE 13 17 7 9 1011.1 - 0.0
23/07:30am 22.7 24.5 20.4 87 1.5 ESE 11 15 6 8 1011.1 - 0.0
23/07:00am 21.3 23.2 19.8 91 1.0 SE 9 13 5 7 1010.7 - 0.0
23/06:30am 21.2 23.4 19.5 90 1.1 ESE 7 9 4 5 1010.2 - 0.0
23/06:00am 21.4 23.4 19.9 91 1.0 ESE 9 11 5 6 1010.0 1009.1 0.0
23/05:30am 20.8 22.0 19.1 90 1.1 SSE 11 13 6 7 1009.8 - 0.0
23/05:00am 20.8 22.6 18.7 88 1.3 ESE 7 9 4 5 1009.9 - 0.0
23/04:30am 21.1 22.5 18.7 86 1.5 SSE 9 9 5 5 1009.8 - 0.0
23/04:00am 21.2 22.5 18.4 84 1.8 SSE 9 9 5 5 1009.8 - 0.0
23/03:30am 21.5 22.6 18.1 81 2.1 SE 9 9 5 5 1009.7 - 0.0
23/03:00am 22.0 23.5 18.0 78 2.5 SSE 7 9 4 5 1010.0 1009.1 0.0
23/02:30am 21.9 23.4 17.5 76 2.7 SE 6 7 3 4 1010.2 - 0.0
23/02:00am 22.5 23.8 17.6 74 3.1 SE 7 7 4 4 1010.4 - 0.0
23/01:30am 23.0 24.1 17.2 70 3.6 SSE 7 9 4 5 1010.6 - 0.0
23/01:00am 23.3 23.7 17.3 69 3.7 SSE 11 11 6 6 1011.0 - 0.0
23/12:30am 23.5 24.3 17.3 68 3.9 SE 9 11 5 6 1011.2 - 0.0
23/12:00am 24.0 24.8 17.3 66 4.2 SE 9 11 5 6 1011.4 1010.5 0.0
 
Date/Time
CST
Temp
°C
App
Temp
°C
Dew
Point
Rel
Hum
%
Delta-T
°C
Wind Press
QNH
hPa
Press
MSL
hPa
Rain
since 9 am
mm
Dir
 
Spd
km/h
Gust
km/h
Spd
kts
Gust
kts
22/11:30pm 24.5 25.8 17.0 63 4.7 SSE 6 7 3 4 1011.2 - 0.0
22/11:00pm 25.0 25.2 16.7 60 5.1 ENE 11 15 6 8 1011.0 - 0.0
22/10:30pm 24.0 25.3 17.5 67 4.1 SE 7 9 4 5 1010.8 - 0.0
22/10:00pm 24.6 26.1 17.6 65 4.4 SE 6 9 3 5 1010.6 - 0.0
22/09:30pm 25.0 26.1 17.2 62 4.9 SSE 7 7 4 4 1010.5 - 0.0
22/09:00pm 25.6 26.9 17.5 61 5.1 SSE 7 7 4 4 1010.6 1009.7 0.0
22/08:30pm 26.5 27.6 17.0 56 5.9 SSE 7 7 4 4 1010.3 - 0.0
22/08:00pm 27.4 28.5 17.0 53 6.5 SSE 7 9 4 5 1010.0 - 0.0
22/07:30pm 28.9 29.5 15.8 45 8.1 SE 7 7 4 4 1009.7 - 0.0
22/07:00pm 29.8 29.8 15.1 40 9.0 ESE 9 11 5 6 1009.4 - 0.0
22/06:30pm 31.2 30.8 15.2 38 9.9 SE 11 17 6 9 1009.1 - 0.0
22/06:00pm 33.0 31.3 14.6 33 11.4 ESE 17 24 9 13 1008.8 1007.9 0.0
22/05:30pm 33.8 31.0 14.3 31 12.0 ESE 22 30 12 16 1008.5 - 0.0
22/05:00pm 34.4 32.0 14.3 30 12.4 E 20 28 11 15 1008.2 - 0.0
22/04:30pm 34.7 31.2 14.6 30 12.5 SE 26 32 14 17 1008.2 - 0.0
22/04:00pm 34.9 32.1 14.2 28 12.8 SE 22 33 12 18 1008.2 - 0.0
22/03:30pm 35.2 32.3 13.9 27 13.1 E 22 37 12 20 1008.3 - 0.0
22/03:00pm 35.2 31.5 13.9 27 13.1 ESE 26 35 14 19 1008.7 1007.8 0.0
22/02:30pm 34.8 32.7 14.7 30 12.5 ESE 19 33 10 18 1009.0 - 0.0
22/02:00pm 34.6 32.0 15.0 31 12.2 E 22 28 12 15 1009.5 - 0.0
22/01:30pm 34.7 31.8 15.1 31 12.3 SE 24 33 13 18 1010.1 - 0.0
22/01:00pm 33.8 29.9 14.3 31 12.0 E 28 35 15 19 1010.6 - 0.0
22/12:30pm 33.8 31.0 15.3 33 11.6 E 24 35 13 19 1011.0 - 0.0
22/12:00pm 32.9 30.0 15.0 34 11.1 ESE 24 35 13 19 1011.8 1010.9 0.0
22/11:30am 33.1 31.1 16.5 37 10.5 E 22 32 12 17 1012.4 - 0.0
22/11:00am 32.0 30.1 16.7 40 9.7 E 22 32 12 17 1012.9 - 0.0
22/10:30am 31.0 29.6 18.0 45 8.4 E 22 33 12 18 1013.2 - 0.0
22/10:00am 30.2 29.8 18.9 50 7.4 E 19 30 10 16 1013.3 - 0.0
22/09:30am 28.2 29.4 20.7 63 5.0 E 15 22 8 12 1013.4 - 0.0
22/09:00am 27.1 27.5 20.9 69 4.1 E 20 24 11 13 1013.3 1012.5 0.0
22/08:30am 25.0 27.0 20.7 77 2.8 SE 11 15 6 8 1013.0 - 0.0
22/08:00am 23.2 25.4 20.3 84 1.9 SSE 9 11 5 6 1012.9 - 0.0
22/07:30am 21.8 24.1 19.9 89 1.2 SSE 7 9 4 5 1012.7 - 0.0
22/07:00am 21.1 23.5 19.6 91 1.0 SE 6 7 3 4 1012.4 - 0.0
22/06:30am 21.1 23.2 19.4 90 1.1 SE 7 9 4 5 1011.8 - 0.0
22/06:00am 21.5 23.8 19.4 88 1.3 E 6 9 3 5 1011.6 1010.7 0.0
22/05:30am 20.9 22.4 18.8 88 1.3 SSE 9 11 5 6 1011.4 - 0.0
22/05:00am 21.9 24.0 18.9 83 1.9 SSE 6 7 3 4 1011.2 - 0.0
22/04:30am 22.3 24.2 18.9 81 2.2 E 7 9 4 5 1011.2 - 0.0
22/04:00am 22.3 23.8 18.9 81 2.2 SE 9 13 5 7 1011.0 - 0.0
22/03:30am 22.4 23.7 18.4 78 2.5 SE 9 9 5 5 1010.9 - 0.0
22/03:00am 23.4 24.6 18.3 73 3.2 SE 9 11 5 6 1011.2 1010.3 0.0
22/02:30am 24.8 26.1 18.5 68 4.0 E 9 11 5 6 1011.4 - 0.0
22/02:00am 25.6 26.1 18.3 64 4.6 E 13 15 7 8 1011.5 - 0.0
22/01:30am 25.6 26.1 17.5 61 5.1 E 11 15 6 8 1011.7 - 0.0
22/01:00am 25.9 26.8 17.5 59 5.3 E 9 13 5 7 1012.0 - 0.0
22/12:30am 26.6 27.2 17.7 58 5.6 E 11 15 6 8 1012.1 - 0.0
22/12:00am 27.3 28.0 18.0 56 5.9 E 11 15 6 8 1012.3 1011.4 0.0
 
Date/Time
CST
Temp
°C
App
Temp
°C
Dew
Point
Rel
Hum
%
Delta-T
°C
Wind Press
QNH
hPa
Press
MSL
hPa
Rain
since 9 am
mm
Dir
 
Spd
km/h
Gust
km/h
Spd
kts
Gust
kts
21/11:30pm 27.5 28.3 19.0 59 5.5 E 13 19 7 10 1012.2 - 0.0
21/11:00pm 25.4 26.7 19.3 69 3.9 SE 11 11 6 6 1012.2 - 0.0
21/10:30pm 25.3 27.0 19.4 70 3.8 SE 9 11 5 6 1012.2 - 0.0
21/10:00pm 25.7 26.9 19.1 67 4.3 SE 11 13 6 7 1012.2 - 0.0
21/09:30pm 26.2 27.9 19.3 65 4.5 ESE 9 11 5 6 1012.2 - 0.0
21/09:00pm 26.0 27.8 19.6 68 4.2 SE 9 11 5 6 1012.0 1011.1 0.0
21/08:30pm 26.5 28.3 19.6 66 4.5 SE 9 11 5 6 1011.8 - 0.0
21/08:00pm 27.4 29.6 19.5 62 5.1 SE 7 7 4 4 1011.4 - 0.0
21/07:30pm 28.3 30.3 19.2 57 5.9 SE 7 9 4 5 1011.1 - 0.0
21/07:00pm 29.7 30.9 18.2 50 7.4 ESE 9 11 5 6 1010.8 - 0.0
21/06:30pm 30.9 32.0 17.9 45 8.4 ESE 9 9 5 5 1010.6 - 0.0
21/06:00pm 32.4 32.9 17.5 41 9.6 E 11 19 6 10 1010.4 1009.5 0.0

Other Formats:

Comma delimited format used in spreadsheet applications
http://www.bom.gov.au/fwo/IDD60801/IDD60801.94131.axf

JavaScript Object Notation format (JSON) in row-major order
http://www.bom.gov.au/fwo/IDD60801/IDD60801.94131.json